GLO2104 SBFL-SBPA
Flight info
| Callsign | GLO2104 |
|---|---|
| Flight time | 0h 45m |
| Altitude | 30000 |
| Route | UGREV UN857 TIMVI |
| Aircraft | B738/M-SDFGIKLORWXY/LB1 |
Departure
| Time | 2026-04-09 12:19 |
|---|---|
| Airport | Hercílio Luz International Airport (SBFL) |
Arrival
| Time | 2026-04-09 13:04 |
|---|---|
| Airport | Porto Alegre-Salgado Filho International Airport (SBPA) |
| Time | Latitude | Longitude | Altitude | Speed | Heading |
|---|---|---|---|---|---|
| 2026-04-09 11:50 | -27.67307 | -48.54505 | 30 ft | 0 kts | 211° |
| 2026-04-09 12:10 | -27.67294 | -48.54496 | 32 ft | 3 kts | 211° |
| 2026-04-09 12:10 | -27.67273 | -48.54486 | 32 ft | 4 kts | 172° |
| 2026-04-09 12:10 | -27.67254 | -48.54499 | 29 ft | 4 kts | 122° |
| 2026-04-09 12:11 | -27.67247 | -48.54511 | 31 ft | 1 kts | 121° |
| 2026-04-09 12:11 | -27.67247 | -48.54512 | 31 ft | 0 kts | 121° |
| 2026-04-09 12:13 | -27.67249 | -48.54507 | 31 ft | 3 kts | 121° |
| 2026-04-09 12:13 | -27.67281 | -48.54444 | 28 ft | 15 kts | 118° |
| 2026-04-09 12:14 | -27.67283 | -48.54381 | 30 ft | 8 kts | 51° |
| 2026-04-09 12:14 | -27.67233 | -48.54342 | 26 ft | 10 kts | 31° |
| 2026-04-09 12:14 | -27.67212 | -48.54278 | 27 ft | 10 kts | 118° |
| 2026-04-09 12:14 | -27.67254 | -48.54205 | 27 ft | 13 kts | 121° |
| 2026-04-09 12:15 | -27.67311 | -48.54099 | 30 ft | 19 kts | 121° |
| 2026-04-09 12:15 | -27.67362 | -48.54007 | 28 ft | 22 kts | 121° |
| 2026-04-09 12:15 | -27.67441 | -48.53860 | 30 ft | 22 kts | 122° |
| 2026-04-09 12:15 | -27.67545 | -48.53672 | 27 ft | 21 kts | 122° |
| 2026-04-09 12:16 | -27.67622 | -48.53535 | 26 ft | 20 kts | 122° |
| 2026-04-09 12:16 | -27.67695 | -48.53402 | 28 ft | 20 kts | 123° |
| 2026-04-09 12:16 | -27.67744 | -48.53317 | 28 ft | 19 kts | 121° |
| 2026-04-09 12:16 | -27.67799 | -48.53211 | 27 ft | 1 kts | 117° |
| 2026-04-09 12:17 | -27.67799 | -48.53210 | 27 ft | 0 kts | 117° |
| 2026-04-09 12:17 | -27.67800 | -48.53207 | 28 ft | 2 kts | 117° |
| 2026-04-09 12:17 | -27.67804 | -48.53168 | 26 ft | 9 kts | 72° |
| 2026-04-09 12:17 | -27.67737 | -48.53099 | 30 ft | 15 kts | 37° |
| 2026-04-09 12:18 | -27.67668 | -48.53090 | 26 ft | 5 kts | 308° |
| 2026-04-09 12:18 | -27.67622 | -48.53174 | 28 ft | 44 kts | 301° |
| 2026-04-09 12:18 | -27.67322 | -48.53732 | 25 ft | 120 kts | 301° |
| 2026-04-09 12:18 | -27.66791 | -48.54727 | 103 ft | 173 kts | 301° |
| 2026-04-09 12:19 | -27.66180 | -48.55893 | 896 ft | 167 kts | 300° |
| 2026-04-09 12:19 | -27.65574 | -48.57029 | 1577 ft | 183 kts | 300° |
| 2026-04-09 12:19 | -27.64854 | -48.58380 | 1890 ft | 217 kts | 300° |
| 2026-04-09 12:19 | -27.64033 | -48.59918 | 2279 ft | 240 kts | 299° |
| 2026-04-09 12:20 | -27.63130 | -48.61609 | 2786 ft | 259 kts | 299° |
| 2026-04-09 12:20 | -27.62189 | -48.63366 | 3722 ft | 264 kts | 298° |
| 2026-04-09 12:20 | -27.61217 | -48.65145 | 4772 ft | 266 kts | 298° |
| 2026-04-09 12:20 | -27.60238 | -48.66928 | 5725 ft | 271 kts | 298° |
| 2026-04-09 12:21 | -27.59241 | -48.68748 | 6696 ft | 274 kts | 299° |
| 2026-04-09 12:21 | -27.58237 | -48.70580 | 7525 ft | 277 kts | 299° |
| 2026-04-09 12:21 | -27.57235 | -48.72406 | 7928 ft | 273 kts | 299° |
| 2026-04-09 12:21 | -27.56221 | -48.74257 | 8025 ft | 281 kts | 299° |
| 2026-04-09 12:22 | -27.55263 | -48.76177 | 8022 ft | 280 kts | 288° |
| 2026-04-09 12:22 | -27.55101 | -48.78291 | 8044 ft | 269 kts | 257° |
| 2026-04-09 12:22 | -27.55821 | -48.80211 | 8038 ft | 268 kts | 234° |
| 2026-04-09 12:22 | -27.57144 | -48.81682 | 8039 ft | 269 kts | 214° |
| 2026-04-09 12:23 | -27.58857 | -48.82532 | 8055 ft | 273 kts | 197° |
| 2026-04-09 12:23 | -27.60722 | -48.83003 | 8043 ft | 275 kts | 193° |
| 2026-04-09 12:23 | -27.62592 | -48.83437 | 8036 ft | 275 kts | 194° |
| 2026-04-09 12:23 | -27.64452 | -48.83928 | 8051 ft | 275 kts | 195° |
| 2026-04-09 12:24 | -27.66319 | -48.84441 | 8052 ft | 277 kts | 195° |
| 2026-04-09 12:24 | -27.68182 | -48.84952 | 8047 ft | 277 kts | 195° |
| 2026-04-09 12:24 | -27.70044 | -48.85458 | 8038 ft | 276 kts | 195° |
| 2026-04-09 12:24 | -27.71921 | -48.85965 | 8049 ft | 276 kts | 195° |
| 2026-04-09 12:25 | -27.73807 | -48.86470 | 8047 ft | 277 kts | 195° |
| 2026-04-09 12:25 | -27.75680 | -48.86970 | 8053 ft | 278 kts | 194° |
| 2026-04-09 12:25 | -27.77587 | -48.87397 | 8441 ft | 282 kts | 192° |
| 2026-04-09 12:25 | -27.79498 | -48.87777 | 9446 ft | 283 kts | 192° |
| 2026-04-09 12:26 | -27.81439 | -48.88155 | 10413 ft | 285 kts | 193° |
| 2026-04-09 12:26 | -27.83478 | -48.88559 | 10775 ft | 309 kts | 193° |
| 2026-04-09 12:26 | -27.85687 | -48.89002 | 10988 ft | 335 kts | 193° |
| 2026-04-09 12:26 | -27.88040 | -48.89474 | 11452 ft | 348 kts | 193° |
| 2026-04-09 12:27 | -27.90443 | -48.89952 | 12232 ft | 351 kts | 193° |
| 2026-04-09 12:27 | -27.92709 | -48.90406 | 13057 ft | 353 kts | 194° |
| 2026-04-09 12:27 | -27.95142 | -48.90896 | 13862 ft | 357 kts | 194° |
| 2026-04-09 12:27 | -27.97607 | -48.91396 | 14604 ft | 361 kts | 195° |
| 2026-04-09 12:28 | -28.00096 | -48.91902 | 15378 ft | 365 kts | 195° |
| 2026-04-09 12:28 | -28.02605 | -48.92413 | 16157 ft | 368 kts | 196° |
| 2026-04-09 12:28 | -28.05107 | -48.92921 | 16800 ft | 374 kts | 196° |
| 2026-04-09 12:28 | -28.07657 | -48.93436 | 17727 ft | 371 kts | 197° |
| 2026-04-09 12:29 | -28.10223 | -48.93958 | 18378 ft | 378 kts | 197° |
| 2026-04-09 12:29 | -28.12847 | -48.94496 | 18929 ft | 385 kts | 197° |
| 2026-04-09 12:29 | -28.15488 | -48.95036 | 19509 ft | 388 kts | 198° |
| 2026-04-09 12:29 | -28.18154 | -48.95577 | 20156 ft | 391 kts | 198° |
| 2026-04-09 12:30 | -28.20785 | -48.96290 | 20722 ft | 384 kts | 211° |
| 2026-04-09 12:30 | -28.23030 | -48.97815 | 21415 ft | 373 kts | 222° |
| 2026-04-09 12:30 | -28.24958 | -48.99752 | 21978 ft | 369 kts | 233° |
| 2026-04-09 12:30 | -28.26607 | -49.01993 | 22538 ft | 371 kts | 236° |
| 2026-04-09 12:31 | -28.28222 | -49.04288 | 23044 ft | 375 kts | 236° |
| 2026-04-09 12:31 | -28.29957 | -49.06515 | 23674 ft | 378 kts | 232° |
| 2026-04-09 12:31 | -28.31780 | -49.08659 | 24273 ft | 378 kts | 232° |
| 2026-04-09 12:31 | -28.33614 | -49.10802 | 24834 ft | 377 kts | 232° |
| 2026-04-09 12:32 | -28.35391 | -49.12927 | 25426 ft | 374 kts | 233° |
| 2026-04-09 12:32 | -28.37182 | -49.15101 | 26156 ft | 370 kts | 233° |
| 2026-04-09 12:32 | -28.38917 | -49.17223 | 26949 ft | 364 kts | 234° |
| 2026-04-09 12:32 | -28.40614 | -49.19327 | 27695 ft | 359 kts | 234° |
| 2026-04-09 12:33 | -28.42270 | -49.21387 | 28458 ft | 355 kts | 234° |
| 2026-04-09 12:33 | -28.43934 | -49.23455 | 29187 ft | 352 kts | 235° |
| 2026-04-09 12:33 | -28.45581 | -49.25500 | 29872 ft | 350 kts | 235° |
| 2026-04-09 12:33 | -28.47219 | -49.27536 | 29994 ft | 348 kts | 235° |
| 2026-04-09 12:34 | -28.50460 | -49.31578 | 30045 ft | 348 kts | 235° |
| 2026-04-09 12:34 | -28.53748 | -49.35697 | 30058 ft | 351 kts | 235° |
| 2026-04-09 12:35 | -28.57019 | -49.39794 | 30067 ft | 348 kts | 235° |
| 2026-04-09 12:35 | -28.60271 | -49.43863 | 30050 ft | 349 kts | 235° |
| 2026-04-09 12:36 | -28.63544 | -49.47960 | 30052 ft | 350 kts | 235° |
| 2026-04-09 12:36 | -28.66823 | -49.52073 | 30044 ft | 351 kts | 235° |
| 2026-04-09 12:37 | -28.70105 | -49.56195 | 30055 ft | 351 kts | 236° |
| 2026-04-09 12:37 | -28.73385 | -49.60318 | 30055 ft | 351 kts | 236° |
| 2026-04-09 12:38 | -28.76660 | -49.64438 | 30073 ft | 348 kts | 236° |
| 2026-04-09 12:38 | -28.78265 | -49.66451 | 30045 ft | 337 kts | 236° |
| 2026-04-09 12:38 | -28.79798 | -49.68375 | 29874 ft | 329 kts | 236° |
| 2026-04-09 12:39 | -28.81311 | -49.70279 | 29675 ft | 319 kts | 236° |
| 2026-04-09 12:39 | -28.82783 | -49.72150 | 29338 ft | 313 kts | 236° |
| 2026-04-09 12:39 | -28.84235 | -49.73981 | 28943 ft | 310 kts | 236° |
| 2026-04-09 12:39 | -28.85679 | -49.75792 | 28600 ft | 306 kts | 236° |
| 2026-04-09 12:40 | -28.87101 | -49.77589 | 28210 ft | 304 kts | 236° |
| 2026-04-09 12:40 | -28.88511 | -49.79372 | 27852 ft | 301 kts | 235° |
| 2026-04-09 12:40 | -28.89908 | -49.81136 | 27492 ft | 300 kts | 234° |
| 2026-04-09 12:41 | -28.93056 | -49.84486 | 26293 ft | 317 kts | 226° |
| 2026-04-09 12:41 | -28.94795 | -49.86042 | 25865 ft | 317 kts | 225° |
| 2026-04-09 12:41 | -28.96539 | -49.87574 | 25511 ft | 315 kts | 225° |
| 2026-04-09 12:41 | -28.98258 | -49.89102 | 25162 ft | 312 kts | 225° |
| 2026-04-09 12:42 | -28.99957 | -49.90636 | 24769 ft | 311 kts | 226° |
| 2026-04-09 12:42 | -29.01642 | -49.92179 | 24523 ft | 308 kts | 225° |
| 2026-04-09 12:42 | -29.03353 | -49.93762 | 24314 ft | 328 kts | 225° |
| 2026-04-09 12:42 | -29.05171 | -49.95468 | 24070 ft | 350 kts | 226° |
| 2026-04-09 12:43 | -29.07070 | -49.97306 | 23903 ft | 363 kts | 225° |
| 2026-04-09 12:43 | -29.09010 | -49.99116 | 23548 ft | 362 kts | 224° |
| 2026-04-09 12:43 | -29.10958 | -50.00905 | 23086 ft | 357 kts | 223° |
| 2026-04-09 12:43 | -29.12881 | -50.02674 | 22615 ft | 353 kts | 223° |
| 2026-04-09 12:44 | -29.14779 | -50.04429 | 22164 ft | 348 kts | 223° |
| 2026-04-09 12:44 | -29.16642 | -50.06159 | 21725 ft | 344 kts | 223° |
| 2026-04-09 12:44 | -29.18489 | -50.07883 | 21304 ft | 340 kts | 223° |
| 2026-04-09 12:44 | -29.20322 | -50.09597 | 20849 ft | 337 kts | 223° |
| 2026-04-09 12:45 | -29.22126 | -50.11288 | 20443 ft | 334 kts | 223° |
| 2026-04-09 12:45 | -29.23917 | -50.12967 | 20019 ft | 332 kts | 223° |
| 2026-04-09 12:45 | -29.25699 | -50.14638 | 19620 ft | 330 kts | 223° |
| 2026-04-09 12:45 | -29.27471 | -50.16303 | 19177 ft | 328 kts | 223° |
| 2026-04-09 12:46 | -29.29228 | -50.17957 | 18772 ft | 326 kts | 223° |
| 2026-04-09 12:46 | -29.30982 | -50.19606 | 18337 ft | 325 kts | 223° |
| 2026-04-09 12:46 | -29.32720 | -50.21241 | 17874 ft | 323 kts | 223° |
| 2026-04-09 12:46 | -29.34452 | -50.22866 | 17460 ft | 320 kts | 222° |
| 2026-04-09 12:47 | -29.36173 | -50.24483 | 17013 ft | 318 kts | 223° |
| 2026-04-09 12:47 | -29.37864 | -50.26077 | 16629 ft | 314 kts | 222° |
| 2026-04-09 12:47 | -29.39540 | -50.27667 | 16220 ft | 311 kts | 224° |
| 2026-04-09 12:47 | -29.41124 | -50.29391 | 15566 ft | 315 kts | 228° |
| 2026-04-09 12:48 | -29.42594 | -50.31249 | 15109 ft | 314 kts | 231° |
| 2026-04-09 12:48 | -29.43973 | -50.33172 | 14713 ft | 311 kts | 232° |
| 2026-04-09 12:48 | -29.45314 | -50.35100 | 14338 ft | 308 kts | 232° |
| 2026-04-09 12:48 | -29.46653 | -50.37009 | 13955 ft | 306 kts | 232° |
| 2026-04-09 12:49 | -29.47996 | -50.38892 | 13526 ft | 304 kts | 231° |
| 2026-04-09 12:49 | -29.49346 | -50.40754 | 13149 ft | 301 kts | 231° |
| 2026-04-09 12:49 | -29.50687 | -50.42587 | 12748 ft | 299 kts | 230° |
| 2026-04-09 12:49 | -29.52005 | -50.44376 | 12375 ft | 295 kts | 230° |
| 2026-04-09 12:50 | -29.53325 | -50.46160 | 12021 ft | 292 kts | 230° |
| 2026-04-09 12:50 | -29.54632 | -50.47924 | 11661 ft | 289 kts | 230° |
| 2026-04-09 12:50 | -29.55934 | -50.49681 | 11295 ft | 288 kts | 230° |
| 2026-04-09 12:50 | -29.57231 | -50.51435 | 10925 ft | 287 kts | 230° |
| 2026-04-09 12:51 | -29.58515 | -50.53164 | 10688 ft | 280 kts | 230° |
| 2026-04-09 12:51 | -29.59754 | -50.54835 | 10577 ft | 273 kts | 230° |
| 2026-04-09 12:51 | -29.60980 | -50.56488 | 10468 ft | 270 kts | 230° |
| 2026-04-09 12:51 | -29.62197 | -50.58127 | 10346 ft | 266 kts | 230° |
| 2026-04-09 12:52 | -29.63379 | -50.59722 | 10235 ft | 258 kts | 230° |
| 2026-04-09 12:52 | -29.64524 | -50.61269 | 10121 ft | 249 kts | 230° |
| 2026-04-09 12:52 | -29.65640 | -50.62778 | 9843 ft | 248 kts | 230° |
| 2026-04-09 12:52 | -29.66752 | -50.64282 | 9570 ft | 245 kts | 230° |
| 2026-04-09 12:53 | -29.67853 | -50.65773 | 9287 ft | 243 kts | 230° |
| 2026-04-09 12:53 | -29.68948 | -50.67253 | 9026 ft | 242 kts | 230° |
| 2026-04-09 12:53 | -29.70031 | -50.68720 | 8752 ft | 241 kts | 230° |
| 2026-04-09 12:53 | -29.71102 | -50.70169 | 8485 ft | 239 kts | 230° |
| 2026-04-09 12:54 | -29.72176 | -50.71623 | 8223 ft | 238 kts | 230° |
| 2026-04-09 12:54 | -29.73270 | -50.73055 | 7980 ft | 239 kts | 227° |
| 2026-04-09 12:54 | -29.74456 | -50.74424 | 7730 ft | 245 kts | 225° |
| 2026-04-09 12:54 | -29.75690 | -50.75802 | 7474 ft | 249 kts | 225° |
| 2026-04-09 12:55 | -29.76942 | -50.77194 | 7204 ft | 249 kts | 225° |
| 2026-04-09 12:55 | -29.78179 | -50.78577 | 6954 ft | 247 kts | 225° |
| 2026-04-09 12:55 | -29.79408 | -50.79958 | 6694 ft | 246 kts | 226° |
| 2026-04-09 12:55 | -29.80610 | -50.81316 | 6378 ft | 246 kts | 226° |
| 2026-04-09 12:56 | -29.81833 | -50.82699 | 6068 ft | 247 kts | 226° |
| 2026-04-09 12:56 | -29.83054 | -50.84081 | 5820 ft | 246 kts | 226° |
| 2026-04-09 12:56 | -29.84273 | -50.85464 | 5540 ft | 244 kts | 226° |
| 2026-04-09 12:56 | -29.85468 | -50.86828 | 5287 ft | 240 kts | 226° |
| 2026-04-09 12:57 | -29.86656 | -50.88174 | 5036 ft | 238 kts | 225° |
| 2026-04-09 12:57 | -29.87836 | -50.89510 | 4795 ft | 238 kts | 226° |
| 2026-04-09 12:57 | -29.89000 | -50.90832 | 4523 ft | 231 kts | 226° |
| 2026-04-09 12:57 | -29.90124 | -50.92106 | 4288 ft | 223 kts | 225° |
| 2026-04-09 12:58 | -29.91424 | -50.93012 | 4050 ft | 217 kts | 201° |
| 2026-04-09 12:58 | -29.92821 | -50.93518 | 3872 ft | 205 kts | 201° |
| 2026-04-09 12:58 | -29.94116 | -50.94082 | 3656 ft | 194 kts | 205° |
| 2026-04-09 12:58 | -29.95334 | -50.94654 | 3448 ft | 184 kts | 206° |
| 2026-04-09 12:59 | -29.96500 | -50.95196 | 3226 ft | 176 kts | 205° |
| 2026-04-09 12:59 | -29.97616 | -50.95706 | 3092 ft | 172 kts | 205° |
| 2026-04-09 12:59 | -29.98707 | -50.96224 | 2883 ft | 165 kts | 213° |
| 2026-04-09 12:59 | -29.99535 | -50.97056 | 2752 ft | 157 kts | 242° |
| 2026-04-09 13:00 | -29.99777 | -50.98248 | 2598 ft | 152 kts | 270° |
| 2026-04-09 13:00 | -29.99749 | -50.99454 | 2419 ft | 152 kts | 270° |
| 2026-04-09 13:00 | -29.99739 | -51.00643 | 2249 ft | 143 kts | 270° |
| 2026-04-09 13:00 | -29.99724 | -51.01744 | 2141 ft | 134 kts | 270° |
| 2026-04-09 13:01 | -29.99721 | -51.02831 | 1998 ft | 136 kts | 269° |
| 2026-04-09 13:01 | -29.99710 | -51.03889 | 1856 ft | 129 kts | 271° |
| 2026-04-09 13:01 | -29.99694 | -51.04922 | 1700 ft | 129 kts | 271° |
| 2026-04-09 13:01 | -29.99676 | -51.05977 | 1556 ft | 134 kts | 269° |
| 2026-04-09 13:02 | -29.99656 | -51.07050 | 1403 ft | 133 kts | 270° |
| 2026-04-09 13:02 | -29.99637 | -51.08098 | 1226 ft | 129 kts | 270° |
| 2026-04-09 13:02 | -29.99619 | -51.09120 | 1053 ft | 126 kts | 270° |
| 2026-04-09 13:02 | -29.99602 | -51.10127 | 893 ft | 127 kts | 271° |
| 2026-04-09 13:03 | -29.99582 | -51.11151 | 731 ft | 127 kts | 269° |
| 2026-04-09 13:03 | -29.99564 | -51.12196 | 543 ft | 134 kts | 270° |
| 2026-04-09 13:03 | -29.99552 | -51.13239 | 409 ft | 129 kts | 270° |
| 2026-04-09 13:03 | -29.99518 | -51.14291 | 236 ft | 134 kts | 271° |
| 2026-04-09 13:04 | -29.99494 | -51.15364 | 98 ft | 134 kts | 270° |
| 2026-04-09 13:04 | -29.99474 | -51.16422 | 28 ft | 125 kts | 270° |
| 2026-04-09 13:04 | -29.99460 | -51.17269 | 17 ft | 78 kts | 272° |
| 2026-04-09 13:04 | -29.99450 | -51.17643 | 20 ft | 12 kts | 274° |
| 2026-04-09 13:05 | -29.99401 | -51.17701 | 20 ft | 9 kts | 360° |
| 2026-04-09 13:05 | -29.99367 | -51.17702 | 19 ft | 8 kts | 360° |
| 2026-04-09 13:05 | -29.99271 | -51.17699 | 20 ft | 14 kts | 2° |
| 2026-04-09 13:05 | -29.99174 | -51.17696 | 18 ft | 12 kts | 4° |
| 2026-04-09 13:06 | -29.99114 | -51.17687 | 18 ft | 6 kts | 8° |
| 2026-04-09 13:06 | -29.99100 | -51.17685 | 18 ft | 0 kts | 8° |